createdAt,value
2022-08-25T00:00:32.215Z,7.75
2022-08-25T00:02:59.290Z,7.25
2022-08-25T00:05:29.210Z,10.20
2022-08-25T00:07:59.294Z,6.60
2022-08-25T00:10:26.436Z,6.68
2022-08-25T00:12:53.498Z,7.30
2022-08-25T00:15:22.700Z,7.45
2022-08-25T00:17:49.758Z,7.07
2022-08-25T00:20:16.800Z,7.65
2022-08-25T00:22:43.890Z,7.38
2022-08-25T00:25:11.455Z,8.13
2022-08-25T00:27:38.554Z,8.75
2022-08-25T00:30:05.940Z,8.45
2022-08-25T00:32:32.988Z,8.02
2022-08-25T00:35:00.819Z,5.97
2022-08-25T00:37:27.943Z,6.90
2022-08-25T00:39:57.142Z,6.25
2022-08-25T00:42:24.267Z,7.47
2022-08-25T00:44:51.357Z,8.63
2022-08-25T00:47:18.399Z,6.47
2022-08-25T00:49:45.458Z,7.97
2022-08-25T00:52:12.495Z,6.72
2022-08-25T00:54:39.518Z,7.43
2022-08-25T00:57:06.560Z,7.43
2022-08-25T00:59:33.628Z,6.57
2022-08-25T01:02:00.658Z,6.82
2022-08-25T01:04:27.696Z,7.50
2022-08-25T01:06:55.497Z,6.55
2022-08-25T01:09:22.588Z,6.78
2022-08-25T01:11:49.630Z,6.50
2022-08-25T01:14:16.676Z,8.07
2022-08-25T01:16:43.922Z,7.32
2022-08-25T01:19:15.196Z,6.45
2022-08-25T01:21:42.647Z,6.57
2022-08-25T01:24:09.687Z,6.32
2022-08-25T01:26:36.743Z,7.68
2022-08-25T01:29:22.233Z,8.38
2022-08-25T01:31:49.360Z,7.60
2022-08-25T01:34:16.433Z,7.80
2022-08-25T01:36:43.491Z,7.18
2022-08-25T01:39:10.539Z,8.05
2022-08-25T01:41:37.599Z,7.15
2022-08-25T01:44:12.387Z,7.20
2022-08-25T01:46:43.778Z,11.15
2022-08-25T01:49:10.819Z,7.43
2022-08-25T01:51:37.858Z,8.90
2022-08-25T01:54:04.895Z,7.38
2022-08-25T01:56:31.936Z,8.00
2022-08-25T01:58:58.974Z,7.55
2022-08-25T02:01:26.396Z,6.47
2022-08-25T02:03:53.475Z,7.60
2022-08-25T02:06:20.562Z,9.55
2022-08-25T02:08:56.270Z,7.10
2022-08-25T02:11:24.256Z,8.38
2022-08-25T02:13:52.458Z,10.75
2022-08-25T02:16:20.680Z,7.68
2022-08-25T02:18:47.805Z,7.20
2022-08-25T02:21:14.859Z,8.85
2022-08-25T02:23:41.997Z,7.93
2022-08-25T02:26:09.045Z,7.80
2022-08-25T02:28:37.355Z,7.80
2022-08-25T02:31:04.492Z,6.72
2022-08-25T02:33:31.589Z,6.93
2022-08-25T02:35:58.631Z,7.47
2022-08-25T02:38:27.991Z,9.18
2022-08-25T02:40:55.076Z,10.60
2022-08-25T02:43:22.173Z,16.83
2022-08-25T02:45:49.362Z,18.00
2022-08-25T02:48:16.474Z,10.82
2022-08-25T02:50:43.826Z,11.95
2022-08-25T02:53:10.857Z,20.52
2022-08-25T02:55:37.963Z,17.35
2022-08-25T02:58:05.151Z,14.45
2022-08-25T03:00:32.319Z,10.07
2022-08-25T03:03:00.906Z,14.68
2022-08-25T03:05:27.970Z,16.13
2022-08-25T03:07:55.014Z,15.77
2022-08-25T03:10:22.065Z,15.63
2022-08-25T03:12:49.115Z,13.13
2022-08-25T03:15:19.226Z,9.57
2022-08-25T03:17:46.358Z,11.07
2022-08-25T03:20:14.354Z,11.10
2022-08-25T03:22:41.423Z,10.13
2022-08-25T03:25:27.279Z,9.05
2022-08-25T03:27:54.350Z,10.18
2022-08-25T03:30:21.554Z,12.88
2022-08-25T03:32:48.622Z,9.05
2022-08-25T03:35:15.671Z,10.25
2022-08-25T03:37:42.708Z,9.45
2022-08-25T03:40:09.813Z,7.95
2022-08-25T03:42:44.992Z,10.60
2022-08-25T03:45:12.540Z,7.95
2022-08-25T03:47:40.328Z,9.18
2022-08-25T03:50:07.374Z,8.77
2022-08-25T03:52:36.937Z,8.60
2022-08-25T03:55:06.026Z,8.18
2022-08-25T03:57:33.065Z,8.07
2022-08-25T04:00:00.189Z,8.88
2022-08-25T04:02:27.505Z,10.07
2022-08-25T04:04:54.616Z,8.15
2022-08-25T04:07:22.700Z,10.02
2022-08-25T04:09:49.754Z,9.73
2022-08-25T04:12:16.786Z,7.80
2022-08-25T04:14:46.009Z,7.78
2022-08-25T04:17:13.053Z,8.05
2022-08-25T04:19:40.123Z,7.82
2022-08-25T04:22:07.183Z,7.85
2022-08-25T04:24:34.230Z,6.82
2022-08-25T04:27:01.288Z,8.30
2022-08-25T04:29:28.330Z,7.30
2022-08-25T04:31:55.466Z,8.25
2022-08-25T04:34:30.501Z,8.40
2022-08-25T04:36:58.382Z,8.90
2022-08-25T04:39:25.427Z,8.70
2022-08-25T04:41:52.565Z,6.93
2022-08-25T04:44:19.610Z,8.60
2022-08-25T04:46:46.710Z,7.65
2022-08-25T04:49:13.753Z,7.95
2022-08-25T04:51:40.901Z,11.38
2022-08-25T04:54:08.137Z,7.25
2022-08-25T04:56:35.194Z,7.70
2022-08-25T04:59:02.652Z,7.47
2022-08-25T05:01:37.776Z,7.11
2022-08-25T05:04:04.885Z,7.15
2022-08-25T05:06:31.967Z,7.28
2022-08-25T05:08:59.038Z,7.57
2022-08-25T05:11:26.074Z,7.32
2022-08-25T05:13:53.133Z,7.97
2022-08-25T05:16:20.269Z,7.68
2022-08-25T05:18:47.332Z,8.27
2022-08-25T05:21:14.451Z,8.52
2022-08-25T05:23:41.543Z,7.57
2022-08-25T05:26:08.590Z,7.97
2022-08-25T05:28:35.826Z,7.90
2022-08-25T05:31:02.947Z,7.53
2022-08-25T05:33:31.386Z,8.02
2022-08-25T05:35:59.958Z,7.55
2022-08-25T05:38:27.017Z,8.73
2022-08-25T05:40:54.214Z,8.60
2022-08-25T05:43:21.315Z,9.07
2022-08-25T05:45:48.428Z,9.20
2022-08-25T05:48:15.641Z,8.75
2022-08-25T05:50:43.098Z,10.07
2022-08-25T05:53:10.198Z,7.90
2022-08-25T05:55:37.248Z,8.70
2022-08-25T05:58:04.523Z,7.97
2022-08-25T06:00:31.666Z,7.85
2022-08-25T06:02:58.706Z,7.93
2022-08-25T06:05:25.762Z,7.70
2022-08-25T06:07:52.921Z,8.60
2022-08-25T06:10:20.267Z,8.15
2022-08-25T06:12:47.533Z,8.73
2022-08-25T06:15:14.677Z,9.20
2022-08-25T06:17:43.041Z,8.73
2022-08-25T06:20:10.083Z,9.20
2022-08-25T06:22:37.720Z,7.75
2022-08-25T06:25:04.781Z,8.93
2022-08-25T06:27:31.826Z,8.63
2022-08-25T06:29:58.898Z,9.27
2022-08-25T06:32:35.926Z,7.95
2022-08-25T06:35:02.974Z,7.88
2022-08-25T06:37:30.018Z,7.90
2022-08-25T06:39:57.102Z,7.90
2022-08-25T06:42:24.202Z,8.93
2022-08-25T06:44:51.255Z,8.18
2022-08-25T06:47:18.578Z,11.20
2022-08-25T06:49:45.655Z,9.65
2022-08-25T06:52:12.739Z,8.95
2022-08-25T06:54:39.776Z,7.82
2022-08-25T06:57:07.005Z,7.90
2022-08-25T06:59:34.426Z,8.85
2022-08-25T07:02:03.142Z,9.10
2022-08-25T07:04:30.727Z,7.93
2022-08-25T07:06:57.791Z,9.35
2022-08-25T07:09:24.834Z,9.35
2022-08-25T07:11:52.449Z,8.55
2022-08-25T07:14:19.595Z,9.27
2022-08-25T07:16:49.641Z,10.63
2022-08-25T07:19:20.925Z,7.88
2022-08-25T07:21:48.636Z,7.97
2022-08-25T07:24:16.509Z,8.30
2022-08-25T07:26:43.699Z,7.75
2022-08-25T07:29:10.851Z,9.18
2022-08-25T07:31:38.157Z,9.07
2022-08-25T07:34:23.853Z,8.68
2022-08-25T07:36:52.736Z,7.07
2022-08-25T07:42:12.097Z,8.10
2022-08-25T07:44:39.362Z,9.75
2022-08-25T07:47:07.492Z,7.80
2022-08-25T07:49:36.227Z,9.27
2022-08-25T07:52:07.086Z,9.25
2022-08-25T07:54:38.180Z,9.75
2022-08-25T07:57:05.562Z,9.10
2022-08-25T07:59:39.403Z,8.02
2022-08-25T08:02:06.875Z,8.82
2022-08-25T08:04:34.136Z,8.07
2022-08-25T08:07:01.381Z,8.35
2022-08-25T08:09:31.078Z,8.23
2022-08-25T08:11:58.143Z,10.68
2022-08-25T08:14:25.251Z,7.68
2022-08-25T08:16:53.967Z,7.47
2022-08-25T08:19:23.030Z,7.85
2022-08-25T08:21:51.417Z,7.40
2022-08-25T08:24:40.658Z,8.15
2022-08-25T08:27:07.495Z,8.38
2022-08-25T08:29:34.545Z,7.90
2022-08-25T08:32:03.272Z,9.88
2022-08-25T08:34:30.410Z,7.93
2022-08-25T08:36:57.493Z,7.55
2022-08-25T08:39:24.529Z,8.95
2022-08-25T08:42:11.563Z,8.07
2022-08-25T08:44:39.302Z,8.35
2022-08-25T08:47:08.853Z,8.68
2022-08-25T08:49:36.254Z,9.00
2022-08-25T08:52:04.189Z,9.02
2022-08-25T08:54:31.243Z,8.77
2022-08-25T08:57:01.175Z,8.60
2022-08-25T08:59:30.033Z,11.55
2022-08-25T09:02:00.383Z,9.55
2022-08-25T09:04:27.995Z,6.80
2022-08-25T09:06:55.246Z,11.73
2022-08-25T09:09:22.333Z,8.27
2022-08-25T09:11:49.370Z,8.73
2022-08-25T09:14:16.403Z,8.70
2022-08-25T09:16:55.615Z,8.82
2022-08-25T09:19:23.522Z,9.65
2022-08-25T09:21:50.862Z,8.60
2022-08-25T09:24:17.918Z,7.68
2022-08-25T09:26:45.838Z,7.05
2022-08-25T09:29:16.638Z,10.57
2022-08-25T09:31:44.233Z,9.05
2022-08-25T09:34:11.763Z,8.32
2022-08-25T09:36:39.670Z,8.10
2022-08-25T09:39:06.767Z,7.35
2022-08-25T09:41:34.275Z,7.38
2022-08-25T09:44:02.857Z,10.25
2022-08-25T09:46:30.470Z,8.85
2022-08-25T09:48:57.841Z,7.95
2022-08-25T09:51:24.910Z,7.70
2022-08-25T09:53:51.969Z,8.35
2022-08-25T09:56:19.009Z,9.50
2022-08-25T09:58:46.078Z,10.27
2022-08-25T10:01:13.605Z,6.85
2022-08-25T10:03:40.960Z,8.57
2022-08-25T10:06:13.353Z,6.95
2022-08-25T10:08:40.823Z,7.50
2022-08-25T10:11:09.051Z,9.45
2022-08-25T10:13:36.166Z,7.45
2022-08-25T10:16:03.289Z,7.32
2022-08-25T10:18:30.765Z,8.30
2022-08-25T10:20:59.343Z,8.13
2022-08-25T10:23:26.504Z,6.57
2022-08-25T10:25:59.356Z,6.68
2022-08-25T10:28:30.171Z,7.07
2022-08-25T10:30:57.339Z,6.72
2022-08-25T10:33:24.432Z,8.48
2022-08-25T10:35:51.514Z,7.88
2022-08-25T10:38:21.680Z,7.50
2022-08-25T10:40:49.766Z,7.93
2022-08-25T10:43:16.803Z,7.22
2022-08-25T10:45:47.819Z,6.20
2022-08-25T10:48:15.278Z,7.88
2022-08-25T10:50:45.466Z,6.60
2022-08-25T10:53:16.042Z,6.28
2022-08-25T10:55:44.073Z,7.07
2022-08-25T10:58:11.121Z,8.23
2022-08-25T11:00:41.698Z,7.80
2022-08-25T11:03:15.423Z,6.32
2022-08-25T11:05:42.609Z,6.93
2022-08-25T11:08:10.092Z,7.00
2022-08-25T11:10:38.616Z,7.60
2022-08-25T11:13:06.136Z,7.70
2022-08-25T11:15:39.722Z,7.40
2022-08-25T11:18:17.309Z,6.90
2022-08-25T11:20:44.343Z,7.72
2022-08-25T11:23:11.469Z,7.05
2022-08-25T11:25:38.628Z,6.28
2022-08-25T11:28:06.170Z,6.90
2022-08-25T11:30:33.361Z,6.15
2022-08-25T11:33:00.815Z,6.00
2022-08-25T11:35:28.795Z,7.13
2022-08-25T11:37:56.489Z,7.20
